sensor_id;sensor_type;location;lat;lon;timestamp;temperature;humidity
67194;DHT22;54121;53.508;49.422;2022-10-16T00:00:08;14.80;35.10
67194;DHT22;54121;53.508;49.422;2022-10-16T00:02:39;14.90;34.80
67194;DHT22;54121;53.508;49.422;2022-10-16T00:05:11;15.00;34.50
67194;DHT22;54121;53.508;49.422;2022-10-16T00:07:43;15.00;34.50
67194;DHT22;54121;53.508;49.422;2022-10-16T00:10:15;15.00;34.50
67194;DHT22;54121;53.508;49.422;2022-10-16T00:12:47;15.00;34.60
67194;DHT22;54121;53.508;49.422;2022-10-16T00:15:19;14.80;35.00
67194;DHT22;54121;53.508;49.422;2022-10-16T00:17:51;14.80;35.20
67194;DHT22;54121;53.508;49.422;2022-10-16T00:20:22;14.50;35.90
67194;DHT22;54121;53.508;49.422;2022-10-16T00:22:54;14.40;36.30
67194;DHT22;54121;53.508;49.422;2022-10-16T00:25:26;14.60;36.20
67194;DHT22;54121;53.508;49.422;2022-10-16T00:28:00;14.60;36.00
67194;DHT22;54121;53.508;49.422;2022-10-16T00:30:38;14.70;35.70
67194;DHT22;54121;53.508;49.422;2022-10-16T00:33:10;14.50;36.00
67194;DHT22;54121;53.508;49.422;2022-10-16T00:35:42;14.40;36.30
67194;DHT22;54121;53.508;49.422;2022-10-16T00:38:14;14.50;36.00
67194;DHT22;54121;53.508;49.422;2022-10-16T00:40:45;14.30;36.60
67194;DHT22;54121;53.508;49.422;2022-10-16T00:46:28;14.40;36.50
67194;DHT22;54121;53.508;49.422;2022-10-16T00:49:18;14.60;37.40
67194;DHT22;54121;53.508;49.422;2022-10-16T00:51:53;14.90;35.40
67194;DHT22;54121;53.508;49.422;2022-10-16T00:54:30;14.60;35.70
67194;DHT22;54121;53.508;49.422;2022-10-16T00:57:05;14.50;35.90
67194;DHT22;54121;53.508;49.422;2022-10-16T00:59:39;14.50;36.30
67194;DHT22;54121;53.508;49.422;2022-10-16T01:02:14;14.30;36.70
67194;DHT22;54121;53.508;49.422;2022-10-16T01:04:52;14.40;36.60
67194;DHT22;54121;53.508;49.422;2022-10-16T01:13:07;14.30;36.50
67194;DHT22;54121;53.508;49.422;2022-10-16T01:19:15;14.20;36.50
67194;DHT22;54121;53.508;49.422;2022-10-16T01:21:51;14.20;36.50
67194;DHT22;54121;53.508;49.422;2022-10-16T01:24:38;14.30;36.50
67194;DHT22;54121;53.508;49.422;2022-10-16T01:27:12;14.10;36.80
67194;DHT22;54121;53.508;49.422;2022-10-16T01:33:10;14.20;36.60
67194;DHT22;54121;53.508;49.422;2022-10-16T01:35:50;14.10;36.90
67194;DHT22;54121;53.508;49.422;2022-10-16T01:38:33;14.00;36.90
67194;DHT22;54121;53.508;49.422;2022-10-16T01:41:24;14.40;36.70
67194;DHT22;54121;53.508;49.422;2022-10-16T01:46:44;14.20;36.80
67194;DHT22;54121;53.508;49.422;2022-10-16T01:49:18;14.20;36.70
67194;DHT22;54121;53.508;49.422;2022-10-16T01:51:55;14.10;36.90
67194;DHT22;54121;53.508;49.422;2022-10-16T01:54:29;13.90;37.20
67194;DHT22;54121;53.508;49.422;2022-10-16T01:57:05;13.80;37.20
67194;DHT22;54121;53.508;49.422;2022-10-16T01:59:45;13.80;37.40
67194;DHT22;54121;53.508;49.422;2022-10-16T02:02:18;14.00;37.10
67194;DHT22;54121;53.508;49.422;2022-10-16T02:04:58;13.90;37.00
67194;DHT22;54121;53.508;49.422;2022-10-16T02:07:33;14.00;37.00
67194;DHT22;54121;53.508;49.422;2022-10-16T02:10:05;14.10;36.60
67194;DHT22;54121;53.508;49.422;2022-10-16T02:12:39;14.00;37.00
67194;DHT22;54121;53.508;49.422;2022-10-16T02:15:14;13.90;37.00
67194;DHT22;54121;53.508;49.422;2022-10-16T02:17:46;14.00;37.00
67194;DHT22;54121;53.508;49.422;2022-10-16T02:20:22;13.80;37.20
67194;DHT22;54121;53.508;49.422;2022-10-16T02:22:57;13.80;37.40
67194;DHT22;54121;53.508;49.422;2022-10-16T02:25:37;13.70;37.50
67194;DHT22;54121;53.508;49.422;2022-10-16T02:28:14;13.90;37.30
67194;DHT22;54121;53.508;49.422;2022-10-16T02:30:58;14.10;36.90
67194;DHT22;54121;53.508;49.422;2022-10-16T02:33:32;13.80;37.10
67194;DHT22;54121;53.508;49.422;2022-10-16T02:36:05;14.00;36.90
67194;DHT22;54121;53.508;49.422;2022-10-16T02:38:39;14.00;37.00
67194;DHT22;54121;53.508;49.422;2022-10-16T02:41:11;13.90;36.80
67194;DHT22;54121;53.508;49.422;2022-10-16T02:43:43;14.00;37.00
67194;DHT22;54121;53.508;49.422;2022-10-16T02:46:17;13.70;37.20
67194;DHT22;54121;53.508;49.422;2022-10-16T02:48:50;13.90;36.60
67194;DHT22;54121;53.508;49.422;2022-10-16T02:51:21;13.90;36.40
67194;DHT22;54121;53.508;49.422;2022-10-16T02:53:53;13.80;36.70
67194;DHT22;54121;53.508;49.422;2022-10-16T02:56:25;14.10;36.20
67194;DHT22;54121;53.508;49.422;2022-10-16T02:58:57;14.10;35.90
67194;DHT22;54121;53.508;49.422;2022-10-16T03:01:29;13.90;36.00
67194;DHT22;54121;53.508;49.422;2022-10-16T03:04:00;13.80;36.30
67194;DHT22;54121;53.508;49.422;2022-10-16T03:06:32;13.60;36.50
67194;DHT22;54121;53.508;49.422;2022-10-16T03:09:04;13.80;36.50
67194;DHT22;54121;53.508;49.422;2022-10-16T03:11:36;13.50;37.10
67194;DHT22;54121;53.508;49.422;2022-10-16T03:14:08;13.60;37.00
67194;DHT22;54121;53.508;49.422;2022-10-16T03:16:39;13.60;36.70
67194;DHT22;54121;53.508;49.422;2022-10-16T03:19:11;13.60;36.60
67194;DHT22;54121;53.508;49.422;2022-10-16T03:21:44;13.40;37.10
67194;DHT22;54121;53.508;49.422;2022-10-16T03:24:16;13.50;37.10
67194;DHT22;54121;53.508;49.422;2022-10-16T03:26:48;13.50;37.10
67194;DHT22;54121;53.508;49.422;2022-10-16T03:29:20;13.60;36.90
67194;DHT22;54121;53.508;49.422;2022-10-16T03:31:52;13.50;36.90
67194;DHT22;54121;53.508;49.422;2022-10-16T03:34:24;13.70;36.80
67194;DHT22;54121;53.508;49.422;2022-10-16T03:36:57;13.80;36.50
67194;DHT22;54121;53.508;49.422;2022-10-16T03:39:29;13.80;36.40
67194;DHT22;54121;53.508;49.422;2022-10-16T03:42:01;13.60;36.90
67194;DHT22;54121;53.508;49.422;2022-10-16T03:44:33;13.60;36.90
67194;DHT22;54121;53.508;49.422;2022-10-16T03:47:05;13.60;36.60
67194;DHT22;54121;53.508;49.422;2022-10-16T03:49:36;13.40;37.50
67194;DHT22;54121;53.508;49.422;2022-10-16T03:52:08;13.40;37.60
67194;DHT22;54121;53.508;49.422;2022-10-16T03:54:40;13.50;37.30
67194;DHT22;54121;53.508;49.422;2022-10-16T03:57:12;13.60;37.10
67194;DHT22;54121;53.508;49.422;2022-10-16T03:59:44;13.70;37.30
67194;DHT22;54121;53.508;49.422;2022-10-16T04:02:16;13.70;37.00
67194;DHT22;54121;53.508;49.422;2022-10-16T04:04:48;13.90;37.20
67194;DHT22;54121;53.508;49.422;2022-10-16T04:07:19;14.00;37.00
67194;DHT22;54121;53.508;49.422;2022-10-16T04:09:51;14.30;36.70
67194;DHT22;54121;53.508;49.422;2022-10-16T04:12:23;14.60;36.00
67194;DHT22;54121;53.508;49.422;2022-10-16T04:14:55;14.80;35.40
67194;DHT22;54121;53.508;49.422;2022-10-16T04:17:27;15.00;35.30
67194;DHT22;54121;53.508;49.422;2022-10-16T04:19:59;15.20;34.90
67194;DHT22;54121;53.508;49.422;2022-10-16T04:22:31;15.60;35.00
67194;DHT22;54121;53.508;49.422;2022-10-16T04:25:03;16.20;33.40
67194;DHT22;54121;53.508;49.422;2022-10-16T04:27:35;16.60;32.60
67194;DHT22;54121;53.508;49.422;2022-10-16T04:30:07;16.80;32.40
67194;DHT22;54121;53.508;49.422;2022-10-16T04:32:39;17.10;31.90
67194;DHT22;54121;53.508;49.422;2022-10-16T04:35:11;17.90;30.00
67194;DHT22;54121;53.508;49.422;2022-10-16T04:37:43;18.50;28.80
67194;DHT22;54121;53.508;49.422;2022-10-16T04:40:15;19.00;28.30
67194;DHT22;54121;53.508;49.422;2022-10-16T04:42:47;19.60;27.30
67194;DHT22;54121;53.508;49.422;2022-10-16T04:45:19;20.30;26.40
67194;DHT22;54121;53.508;49.422;2022-10-16T04:47:51;20.80;25.40
67194;DHT22;54121;53.508;49.422;2022-10-16T04:50:23;21.40;24.60
67194;DHT22;54121;53.508;49.422;2022-10-16T04:52:54;21.70;24.20
67194;DHT22;54121;53.508;49.422;2022-10-16T04:55:26;21.50;24.80
67194;DHT22;54121;53.508;49.422;2022-10-16T04:57:58;22.10;23.80
67194;DHT22;54121;53.508;49.422;2022-10-16T05:00:30;21.50;24.40
67194;DHT22;54121;53.508;49.422;2022-10-16T05:03:02;21.70;24.30
67194;DHT22;54121;53.508;49.422;2022-10-16T05:05:41;22.00;23.80
67194;DHT22;54121;53.508;49.422;2022-10-16T05:08:14;22.40;23.40
67194;DHT22;54121;53.508;49.422;2022-10-16T05:10:47;23.00;22.70
67194;DHT22;54121;53.508;49.422;2022-10-16T05:13:19;22.80;22.80
67194;DHT22;54121;53.508;49.422;2022-10-16T05:15:51;24.20;21.50
67194;DHT22;54121;53.508;49.422;2022-10-16T05:18:25;24.90;20.20
67194;DHT22;54121;53.508;49.422;2022-10-16T05:20:57;25.20;19.80
67194;DHT22;54121;53.508;49.422;2022-10-16T05:23:28;25.00;20.10
67194;DHT22;54121;53.508;49.422;2022-10-16T05:26:00;24.20;20.70
67194;DHT22;54121;53.508;49.422;2022-10-16T05:28:32;24.10;21.10
67194;DHT22;54121;53.508;49.422;2022-10-16T05:31:08;25.00;20.20
67194;DHT22;54121;53.508;49.422;2022-10-16T05:33:40;24.80;20.00
67194;DHT22;54121;53.508;49.422;2022-10-16T05:36:12;25.20;19.90
67194;DHT22;54121;53.508;49.422;2022-10-16T05:38:44;24.30;20.90
67194;DHT22;54121;53.508;49.422;2022-10-16T05:41:16;25.10;20.10
67194;DHT22;54121;53.508;49.422;2022-10-16T05:43:53;25.60;19.50
67194;DHT22;54121;53.508;49.422;2022-10-16T05:46:25;25.50;19.20
67194;DHT22;54121;53.508;49.422;2022-10-16T05:48:57;25.40;19.90
67194;DHT22;54121;53.508;49.422;2022-10-16T05:51:28;25.60;18.80
67194;DHT22;54121;53.508;49.422;2022-10-16T05:54:00;25.70;18.50
67194;DHT22;54121;53.508;49.422;2022-10-16T05:56:32;25.40;19.10
67194;DHT22;54121;53.508;49.422;2022-10-16T05:59:04;25.30;19.00
67194;DHT22;54121;53.508;49.422;2022-10-16T06:01:36;26.20;18.80
67194;DHT22;54121;53.508;49.422;2022-10-16T06:04:08;25.50;19.00
67194;DHT22;54121;53.508;49.422;2022-10-16T06:06:40;25.40;19.50
67194;DHT22;54121;53.508;49.422;2022-10-16T06:09:12;25.90;18.70
67194;DHT22;54121;53.508;49.422;2022-10-16T06:11:44;25.00;18.90
67194;DHT22;54121;53.508;49.422;2022-10-16T06:14:16;24.90;19.70
67194;DHT22;54121;53.508;49.422;2022-10-16T06:16:48;25.10;19.70
67194;DHT22;54121;53.508;49.422;2022-10-16T06:19:19;25.30;19.50
67194;DHT22;54121;53.508;49.422;2022-10-16T06:21:51;25.60;19.40
67194;DHT22;54121;53.508;49.422;2022-10-16T06:24:23;25.70;18.50
67194;DHT22;54121;53.508;49.422;2022-10-16T06:26:55;26.50;17.70
67194;DHT22;54121;53.508;49.422;2022-10-16T06:29:27;26.10;18.40
67194;DHT22;54121;53.508;49.422;2022-10-16T06:31:59;25.70;19.20
67194;DHT22;54121;53.508;49.422;2022-10-16T06:34:31;26.90;17.30
67194;DHT22;54121;53.508;49.422;2022-10-16T06:37:03;28.10;16.40
67194;DHT22;54121;53.508;49.422;2022-10-16T06:39:35;28.10;15.90
67194;DHT22;54121;53.508;49.422;2022-10-16T06:42:07;26.90;17.10
67194;DHT22;54121;53.508;49.422;2022-10-16T06:44:38;26.60;17.10
67194;DHT22;54121;53.508;49.422;2022-10-16T06:47:11;26.20;17.40
67194;DHT22;54121;53.508;49.422;2022-10-16T06:49:43;26.40;17.20
67194;DHT22;54121;53.508;49.422;2022-10-16T06:52:14;26.10;17.30
67194;DHT22;54121;53.508;49.422;2022-10-16T06:54:46;25.90;17.60
67194;DHT22;54121;53.508;49.422;2022-10-16T06:57:18;26.10;17.50
67194;DHT22;54121;53.508;49.422;2022-10-16T06:59:50;26.30;18.20
67194;DHT22;54121;53.508;49.422;2022-10-16T07:02:22;25.70;18.30
67194;DHT22;54121;53.508;49.422;2022-10-16T07:04:53;28.20;16.00
67194;DHT22;54121;53.508;49.422;2022-10-16T07:07:25;27.60;16.20
67194;DHT22;54121;53.508;49.422;2022-10-16T07:09:58;26.60;17.10
67194;DHT22;54121;53.508;49.422;2022-10-16T07:12:30;29.40;14.90
67194;DHT22;54121;53.508;49.422;2022-10-16T07:15:05;29.50;13.90
67194;DHT22;54121;53.508;49.422;2022-10-16T07:17:37;29.20;14.50
67194;DHT22;54121;53.508;49.422;2022-10-16T07:20:09;27.80;15.80
67194;DHT22;54121;53.508;49.422;2022-10-16T07:22:41;28.00;15.20
67194;DHT22;54121;53.508;49.422;2022-10-16T07:25:13;28.50;14.30
67194;DHT22;54121;53.508;49.422;2022-10-16T07:27:45;27.60;15.30
67194;DHT22;54121;53.508;49.422;2022-10-16T07:30:17;27.10;15.50
67194;DHT22;54121;53.508;49.422;2022-10-16T07:32:49;26.50;16.10
67194;DHT22;54121;53.508;49.422;2022-10-16T07:35:20;26.40;15.60
67194;DHT22;54121;53.508;49.422;2022-10-16T07:37:53;26.60;14.80
67194;DHT22;54121;53.508;49.422;2022-10-16T07:40:24;27.00;14.60
67194;DHT22;54121;53.508;49.422;2022-10-16T07:42:58;27.10;14.80
67194;DHT22;54121;53.508;49.422;2022-10-16T07:45:30;26.20;15.00
67194;DHT22;54121;53.508;49.422;2022-10-16T07:48:02;27.40;15.00
67194;DHT22;54121;53.508;49.422;2022-10-16T07:50:34;26.70;14.90
67194;DHT22;54121;53.508;49.422;2022-10-16T07:53:07;26.60;15.60
67194;DHT22;54121;53.508;49.422;2022-10-16T07:55:38;26.30;15.90
67194;DHT22;54121;53.508;49.422;2022-10-16T07:58:10;26.40;16.10
67194;DHT22;54121;53.508;49.422;2022-10-16T08:00:42;26.10;15.80
67194;DHT22;54121;53.508;49.422;2022-10-16T08:03:14;26.50;15.60
67194;DHT22;54121;53.508;49.422;2022-10-16T08:05:46;26.70;15.20
67194;DHT22;54121;53.508;49.422;2022-10-16T08:08:21;27.10;14.90
67194;DHT22;54121;53.508;49.422;2022-10-16T08:10:53;28.30;14.40
67194;DHT22;54121;53.508;49.422;2022-10-16T08:13:25;28.60;13.90
67194;DHT22;54121;53.508;49.422;2022-10-16T08:15:58;26.90;14.60
67194;DHT22;54121;53.508;49.422;2022-10-16T08:18:29;28.30;13.50
67194;DHT22;54121;53.508;49.422;2022-10-16T08:21:01;27.10;14.20
67194;DHT22;54121;53.508;49.422;2022-10-16T08:23:34;26.40;15.30
67194;DHT22;54121;53.508;49.422;2022-10-16T08:26:07;26.20;15.60
67194;DHT22;54121;53.508;49.422;2022-10-16T08:28:39;26.50;16.10
67194;DHT22;54121;53.508;49.422;2022-10-16T08:31:13;27.30;15.00
67194;DHT22;54121;53.508;49.422;2022-10-16T08:33:46;26.30;14.90
67194;DHT22;54121;53.508;49.422;2022-10-16T08:36:18;27.60;14.10
67194;DHT22;54121;53.508;49.422;2022-10-16T08:38:50;28.00;13.50
67194;DHT22;54121;53.508;49.422;2022-10-16T08:44:26;28.40;13.50
67194;DHT22;54121;53.508;49.422;2022-10-16T08:47:07;28.30;13.50
67194;DHT22;54121;53.508;49.422;2022-10-16T08:49:44;28.60;12.90
67194;DHT22;54121;53.508;49.422;2022-10-16T08:52:24;29.40;12.40
67194;DHT22;54121;53.508;49.422;2022-10-16T08:54:57;29.50;12.20
67194;DHT22;54121;53.508;49.422;2022-10-16T08:57:29;29.10;12.30
67194;DHT22;54121;53.508;49.422;2022-10-16T09:00:14;29.90;11.80
67194;DHT22;54121;53.508;49.422;2022-10-16T09:09:27;29.10;12.70
67194;DHT22;54121;53.508;49.422;2022-10-16T09:12:22;31.50;10.60
67194;DHT22;54121;53.508;49.422;2022-10-16T09:18:23;30.20;11.90
67194;DHT22;54121;53.508;49.422;2022-10-16T09:24:06;32.30;9.80
67194;DHT22;54121;53.508;49.422;2022-10-16T09:26:41;30.70;11.00
67194;DHT22;54121;53.508;49.422;2022-10-16T09:29:15;31.00;10.30
67194;DHT22;54121;53.508;49.422;2022-10-16T09:31:47;30.90;10.40
67194;DHT22;54121;53.508;49.422;2022-10-16T09:34:32;29.30;11.80
67194;DHT22;54121;53.508;49.422;2022-10-16T09:37:09;29.40;11.90
67194;DHT22;54121;53.508;49.422;2022-10-16T09:39:52;30.50;11.30
67194;DHT22;54121;53.508;49.422;2022-10-16T09:42:32;28.50;13.00
67194;DHT22;54121;53.508;49.422;2022-10-16T09:45:18;28.30;12.80
67194;DHT22;54121;53.508;49.422;2022-10-16T09:47:51;29.10;12.80
67194;DHT22;54121;53.508;49.422;2022-10-16T09:50:28;29.20;12.60
67194;DHT22;54121;53.508;49.422;2022-10-16T09:53:05;28.50;13.50
67194;DHT22;54121;53.508;49.422;2022-10-16T09:55:54;29.40;12.30
67194;DHT22;54121;53.508;49.422;2022-10-16T09:58:25;28.60;12.70
67194;DHT22;54121;53.508;49.422;2022-10-16T10:00:58;30.20;11.80
67194;DHT22;54121;53.508;49.422;2022-10-16T10:03:48;32.60;10.30
67194;DHT22;54121;53.508;49.422;2022-10-16T10:06:27;33.50;9.50
67194;DHT22;54121;53.508;49.422;2022-10-16T10:09:03;31.70;10.50
67194;DHT22;54121;53.508;49.422;2022-10-16T10:11:51;31.00;11.20
67194;DHT22;54121;53.508;49.422;2022-10-16T10:14:42;33.90;8.80
67194;DHT22;54121;53.508;49.422;2022-10-16T10:17:19;32.30;9.60
67194;DHT22;54121;53.508;49.422;2022-10-16T10:19:58;31.40;10.60
67194;DHT22;54121;53.508;49.422;2022-10-16T10:22:44;32.50;10.20
67194;DHT22;54121;53.508;49.422;2022-10-16T10:28:26;33.30;9.30
67194;DHT22;54121;53.508;49.422;2022-10-16T10:31:05;35.20;8.00
67194;DHT22;54121;53.508;49.422;2022-10-16T10:36:39;32.90;9.10
67194;DHT22;54121;53.508;49.422;2022-10-16T10:53:53;33.50;8.70
67194;DHT22;54121;53.508;49.422;2022-10-16T10:56:45;32.60;8.90
67194;DHT22;54121;53.508;49.422;2022-10-16T11:05:31;33.00;9.20
67194;DHT22;54121;53.508;49.422;2022-10-16T11:08:09;33.50;9.10
67194;DHT22;54121;53.508;49.422;2022-10-16T11:10:54;33.40;9.00
67194;DHT22;54121;53.508;49.422;2022-10-16T11:16:22;33.80;8.70
67194;DHT22;54121;53.508;49.422;2022-10-16T11:21:43;33.70;8.90
67194;DHT22;54121;53.508;49.422;2022-10-16T11:26:48;32.80;9.80
67194;DHT22;54121;53.508;49.422;2022-10-16T11:29:28;32.40;9.10
67194;DHT22;54121;53.508;49.422;2022-10-16T11:32:23;33.10;9.00
67194;DHT22;54121;53.508;49.422;2022-10-16T11:35:10;32.30;9.90
67194;DHT22;54121;53.508;49.422;2022-10-16T11:37:44;31.60;10.00
67194;DHT22;54121;53.508;49.422;2022-10-16T11:40:38;32.70;9.60
67194;DHT22;54121;53.508;49.422;2022-10-16T11:43:22;31.70;10.00
67194;DHT22;54121;53.508;49.422;2022-10-16T11:45:58;31.90;10.10
67194;DHT22;54121;53.508;49.422;2022-10-16T11:48:39;31.90;9.60
67194;DHT22;54121;53.508;49.422;2022-10-16T11:51:43;31.80;10.10
67194;DHT22;54121;53.508;49.422;2022-10-16T11:54:30;31.00;10.50
67194;DHT22;54121;53.508;49.422;2022-10-16T11:57:11;30.50;11.10
67194;DHT22;54121;53.508;49.422;2022-10-16T11:59:52;31.90;10.50
67194;DHT22;54121;53.508;49.422;2022-10-16T12:05:19;30.80;10.90
67194;DHT22;54121;53.508;49.422;2022-10-16T12:08:13;32.20;9.60
67194;DHT22;54121;53.508;49.422;2022-10-16T12:10:47;31.50;9.90
67194;DHT22;54121;53.508;49.422;2022-10-16T12:13:34;31.20;10.50
67194;DHT22;54121;53.508;49.422;2022-10-16T12:18:46;31.00;10.70
67194;DHT22;54121;53.508;49.422;2022-10-16T12:21:18;31.20;10.80
67194;DHT22;54121;53.508;49.422;2022-10-16T12:24:02;31.30;10.80
67194;DHT22;54121;53.508;49.422;2022-10-16T12:26:39;30.40;11.10
67194;DHT22;54121;53.508;49.422;2022-10-16T12:29:36;32.40;9.90
67194;DHT22;54121;53.508;49.422;2022-10-16T12:34:59;30.10;11.60
67194;DHT22;54121;53.508;49.422;2022-10-16T12:37:36;30.40;11.20
67194;DHT22;54121;53.508;49.422;2022-10-16T12:40:28;30.20;11.70
67194;DHT22;54121;53.508;49.422;2022-10-16T12:48:44;29.60;11.90
67194;DHT22;54121;53.508;49.422;2022-10-16T12:54:12;29.50;12.50
67194;DHT22;54121;53.508;49.422;2022-10-16T12:57:13;30.30;12.10
67194;DHT22;54121;53.508;49.422;2022-10-16T13:06:51;29.00;12.40
67194;DHT22;54121;53.508;49.422;2022-10-16T13:20:31;27.70;13.50
67194;DHT22;54121;53.508;49.422;2022-10-16T13:23:26;27.40;14.00
67194;DHT22;54121;53.508;49.422;2022-10-16T13:28:39;26.60;14.90
67194;DHT22;54121;53.508;49.422;2022-10-16T13:31:16;26.60;14.80
67194;DHT22;54121;53.508;49.422;2022-10-16T13:33:51;26.00;15.30
67194;DHT22;54121;53.508;49.422;2022-10-16T13:36:34;25.70;15.40
67194;DHT22;54121;53.508;49.422;2022-10-16T13:39:15;24.80;16.30
67194;DHT22;54121;53.508;49.422;2022-10-16T13:42:14;25.10;16.20
67194;DHT22;54121;53.508;49.422;2022-10-16T13:44:50;24.50;17.00
67194;DHT22;54121;53.508;49.422;2022-10-16T13:47:27;24.20;17.40
67194;DHT22;54121;53.508;49.422;2022-10-16T13:50:20;23.70;17.80
67194;DHT22;54121;53.508;49.422;2022-10-16T13:52:51;23.10;18.50
67194;DHT22;54121;53.508;49.422;2022-10-16T13:55:24;23.60;18.10
67194;DHT22;54121;53.508;49.422;2022-10-16T13:58:06;23.30;18.50
67194;DHT22;54121;53.508;49.422;2022-10-16T14:00:38;22.90;18.70
67194;DHT22;54121;53.508;49.422;2022-10-16T14:03:15;22.60;19.10
67194;DHT22;54121;53.508;49.422;2022-10-16T14:08:20;22.90;19.20
67194;DHT22;54121;53.508;49.422;2022-10-16T14:11:01;23.10;19.10
67194;DHT22;54121;53.508;49.422;2022-10-16T14:13:39;23.00;19.40
67194;DHT22;54121;53.508;49.422;2022-10-16T14:16:27;22.50;19.90
67194;DHT22;54121;53.508;49.422;2022-10-16T14:19:02;22.60;20.00
67194;DHT22;54121;53.508;49.422;2022-10-16T14:21:35;22.50;20.10
67194;DHT22;54121;53.508;49.422;2022-10-16T14:24:12;22.60;20.00
67194;DHT22;54121;53.508;49.422;2022-10-16T14:26:45;23.20;19.40
67194;DHT22;54121;53.508;49.422;2022-10-16T14:29:20;22.60;20.20
67194;DHT22;54121;53.508;49.422;2022-10-16T14:32:03;22.30;20.90
67194;DHT22;54121;53.508;49.422;2022-10-16T14:34:37;22.30;20.80
67194;DHT22;54121;53.508;49.422;2022-10-16T14:39:49;21.80;21.40
67194;DHT22;54121;53.508;49.422;2022-10-16T14:42:24;22.00;21.20
67194;DHT22;54121;53.508;49.422;2022-10-16T14:44:56;21.90;21.30
67194;DHT22;54121;53.508;49.422;2022-10-16T14:47:29;21.90;21.50
67194;DHT22;54121;53.508;49.422;2022-10-16T14:50:01;21.60;21.50
67194;DHT22;54121;53.508;49.422;2022-10-16T14:52:32;21.90;21.60
67194;DHT22;54121;53.508;49.422;2022-10-16T14:55:05;21.60;22.00
67194;DHT22;54121;53.508;49.422;2022-10-16T14:57:38;21.90;21.40
67194;DHT22;54121;53.508;49.422;2022-10-16T15:00:21;21.30;22.20
67194;DHT22;54121;53.508;49.422;2022-10-16T15:02:53;21.20;22.60
67194;DHT22;54121;53.508;49.422;2022-10-16T15:05:26;21.20;22.50
67194;DHT22;54121;53.508;49.422;2022-10-16T15:07:58;21.00;23.00
67194;DHT22;54121;53.508;49.422;2022-10-16T15:10:31;20.60;23.40
67194;DHT22;54121;53.508;49.422;2022-10-16T15:13:04;21.00;23.00
67194;DHT22;54121;53.508;49.422;2022-10-16T15:15:44;20.70;23.20
67194;DHT22;54121;53.508;49.422;2022-10-16T15:18:16;20.60;23.20
67194;DHT22;54121;53.508;49.422;2022-10-16T15:20:51;20.60;23.30
67194;DHT22;54121;53.508;49.422;2022-10-16T15:23:23;20.30;23.50
67194;DHT22;54121;53.508;49.422;2022-10-16T15:25:56;20.20;23.80
67194;DHT22;54121;53.508;49.422;2022-10-16T15:28:28;20.00;24.00
67194;DHT22;54121;53.508;49.422;2022-10-16T15:31:00;20.00;24.20
67194;DHT22;54121;53.508;49.422;2022-10-16T15:33:32;20.00;24.10
67194;DHT22;54121;53.508;49.422;2022-10-16T15:36:06;20.00;24.10
67194;DHT22;54121;53.508;49.422;2022-10-16T15:38:39;20.20;23.60
67194;DHT22;54121;53.508;49.422;2022-10-16T15:41:10;20.50;23.30
67194;DHT22;54121;53.508;49.422;2022-10-16T15:43:43;20.40;23.40
67194;DHT22;54121;53.508;49.422;2022-10-16T15:46:17;20.80;22.80
67194;DHT22;54121;53.508;49.422;2022-10-16T15:48:50;20.60;23.00
67194;DHT22;54121;53.508;49.422;2022-10-16T15:51:22;20.10;23.80
67194;DHT22;54121;53.508;49.422;2022-10-16T15:53:56;20.00;24.00
67194;DHT22;54121;53.508;49.422;2022-10-16T15:56:28;19.50;24.50
67194;DHT22;54121;53.508;49.422;2022-10-16T15:59:00;19.50;24.80
67194;DHT22;54121;53.508;49.422;2022-10-16T16:01:36;19.50;24.70
67194;DHT22;54121;53.508;49.422;2022-10-16T16:04:08;19.60;24.80
67194;DHT22;54121;53.508;49.422;2022-10-16T16:06:40;19.40;24.80
67194;DHT22;54121;53.508;49.422;2022-10-16T16:09:15;19.10;25.20
67194;DHT22;54121;53.508;49.422;2022-10-16T16:11:48;19.30;24.90
67194;DHT22;54121;53.508;49.422;2022-10-16T16:14:20;19.10;25.40
67194;DHT22;54121;53.508;49.422;2022-10-16T16:16:53;18.80;25.80
67194;DHT22;54121;53.508;49.422;2022-10-16T16:19:25;18.80;25.60
67194;DHT22;54121;53.508;49.422;2022-10-16T16:21:57;18.90;25.40
67194;DHT22;54121;53.508;49.422;2022-10-16T16:24:29;19.20;25.00
67194;DHT22;54121;53.508;49.422;2022-10-16T16:27:00;18.90;25.40
67194;DHT22;54121;53.508;49.422;2022-10-16T16:29:32;18.80;25.60
67194;DHT22;54121;53.508;49.422;2022-10-16T16:32:04;18.90;25.40
67194;DHT22;54121;53.508;49.422;2022-10-16T16:34:36;19.00;25.10
67194;DHT22;54121;53.508;49.422;2022-10-16T16:37:08;19.00;25.10
67194;DHT22;54121;53.508;49.422;2022-10-16T16:39:40;18.80;25.60
67194;DHT22;54121;53.508;49.422;2022-10-16T16:42:12;18.80;25.30
67194;DHT22;54121;53.508;49.422;2022-10-16T16:44:44;18.80;25.30
67194;DHT22;54121;53.508;49.422;2022-10-16T16:47:16;19.30;24.90
67194;DHT22;54121;53.508;49.422;2022-10-16T16:49:48;19.70;24.20
67194;DHT22;54121;53.508;49.422;2022-10-16T16:52:20;20.10;23.70
67194;DHT22;54121;53.508;49.422;2022-10-16T16:54:53;19.50;24.10
67194;DHT22;54121;53.508;49.422;2022-10-16T16:57:25;18.90;25.30
67194;DHT22;54121;53.508;49.422;2022-10-16T16:59:58;18.70;25.70
67194;DHT22;54121;53.508;49.422;2022-10-16T17:02:30;18.50;25.90
67194;DHT22;54121;53.508;49.422;2022-10-16T17:05:02;18.40;26.00
67194;DHT22;54121;53.508;49.422;2022-10-16T17:07:34;18.40;25.90
67194;DHT22;54121;53.508;49.422;2022-10-16T17:10:07;18.30;26.40
67194;DHT22;54121;53.508;49.422;2022-10-16T17:12:39;18.20;26.50
67194;DHT22;54121;53.508;49.422;2022-10-16T17:15:11;18.50;25.90
67194;DHT22;54121;53.508;49.422;2022-10-16T17:17:42;18.50;25.80
67194;DHT22;54121;53.508;49.422;2022-10-16T17:20:14;18.60;26.00
67194;DHT22;54121;53.508;49.422;2022-10-16T17:22:46;18.40;25.90
67194;DHT22;54121;53.508;49.422;2022-10-16T17:25:19;18.40;25.90
67194;DHT22;54121;53.508;49.422;2022-10-16T17:27:50;18.90;25.20
67194;DHT22;54121;53.508;49.422;2022-10-16T17:30:24;19.10;24.70
67194;DHT22;54121;53.508;49.422;2022-10-16T17:32:55;18.10;26.10
67194;DHT22;54121;53.508;49.422;2022-10-16T17:35:27;18.10;26.40
67194;DHT22;54121;53.508;49.422;2022-10-16T17:37:59;18.40;26.20
67194;DHT22;54121;53.508;49.422;2022-10-16T17:40:31;18.40;26.00
67194;DHT22;54121;53.508;49.422;2022-10-16T17:43:03;18.20;26.20
67194;DHT22;54121;53.508;49.422;2022-10-16T17:45:36;18.40;25.80
67194;DHT22;54121;53.508;49.422;2022-10-16T17:48:08;18.80;25.10
67194;DHT22;54121;53.508;49.422;2022-10-16T17:50:41;18.90;25.30
67194;DHT22;54121;53.508;49.422;2022-10-16T17:53:13;18.70;25.30
67194;DHT22;54121;53.508;49.422;2022-10-16T17:55:45;18.00;26.40